Time,TemperatureF,DewpointF,PressureIn,WindDirection,WindDirectionDegrees,WindSpeedMPH,WindSpeedGustMPH,Humidity,HourlyPrecipIn,Conditions,Clouds,dailyrainin,SoftwareType,DateUTC
2013-05-17 00:02:00,43.0,39.4,29.69,NE,45,4.0,7.0,87,0.00,,,0.00,meteohub,2013-05-16 23:02:00,
2013-05-17 00:07:00,42.8,39.2,29.69,ENE,67,4.0,7.0,87,0.00,,,0.00,meteohub,2013-05-16 23:07:00,
2013-05-17 00:12:00,42.8,38.8,29.69,ENE,67,3.0,7.0,86,0.00,,,0.00,meteohub,2013-05-16 23:12:00,
2013-05-17 00:17:00,42.6,38.7,29.69,ENE,67,6.0,7.0,86,0.00,,,0.00,meteohub,2013-05-16 23:17:00,
2013-05-17 00:23:00,42.4,38.5,29.69,ENE,67,3.0,7.0,86,0.00,,,0.00,meteohub,2013-05-16 23:23:00,
2013-05-17 00:28:00,42.4,38.5,29.69,NE,45,4.0,6.0,86,0.00,,,0.00,meteohub,2013-05-16 23:28:00,
2013-05-17 00:33:00,42.3,38.7,29.69,ENE,67,4.0,6.0,87,0.00,,,0.00,meteohub,2013-05-16 23:33:00,
2013-05-17 00:38:00,42.3,38.7,29.72,NNE,22,4.0,6.0,87,0.00,,,0.00,meteohub,2013-05-16 23:38:00,
2013-05-17 00:43:00,42.1,38.5,29.72,NE,45,3.0,6.0,87,0.00,,,0.00,meteohub,2013-05-16 23:43:00,
2013-05-17 00:48:00,42.1,38.5,29.72,NE,45,1.0,6.0,87,0.00,,,0.00,meteohub,2013-05-16 23:48:00,
2013-05-17 00:53:00,41.9,38.3,29.72,NNE,22,0.0,6.0,87,0.00,,,0.00,meteohub,2013-05-16 23:53:00,
2013-05-17 00:58:00,41.7,38.1,29.72,NNE,22,2.0,4.0,87,0.00,,,0.00,meteohub,2013-05-16 23:58:00,
2013-05-17 01:03:00,41.5,37.9,29.72,ENE,67,2.0,4.0,87,0.00,,,0.00,meteohub,2013-05-17 00:03:00,
2013-05-17 01:08:00,41.5,37.6,29.72,ENE,67,1.0,3.0,86,0.00,,,0.00,meteohub,2013-05-17 00:08:00,
2013-05-17 01:13:00,41.4,37.6,29.72,NNE,22,0.0,3.0,86,0.00,,,0.00,meteohub,2013-05-17 00:13:00,
2013-05-17 01:19:00,41.2,37.4,29.72,NNE,22,3.0,3.0,86,0.00,,,0.00,meteohub,2013-05-17 00:19:00,
2013-05-17 01:24:00,41.2,37.4,29.72,NNE,22,2.0,3.0,86,0.00,,,0.00,meteohub,2013-05-17 00:24:00,
2013-05-17 01:29:00,41.0,37.2,29.72,North,0,3.0,3.0,86,0.00,,,0.00,meteohub,2013-05-17 00:29:00,
2013-05-17 01:34:00,41.0,37.2,29.72,North,0,2.0,3.0,86,0.00,,,0.00,meteohub,2013-05-17 00:34:00,
2013-05-17 01:39:00,41.0,37.2,29.72,NNE,22,0.0,3.0,86,0.00,,,0.00,meteohub,2013-05-17 00:39:00,
2013-05-17 01:44:00,41.0,37.2,29.72,North,0,0.0,3.0,86,0.00,,,0.00,meteohub,2013-05-17 00:44:00,
2013-05-17 01:49:00,40.8,37.2,29.72,NNE,22,2.0,3.0,87,0.00,,,0.00,meteohub,2013-05-17 00:49:00,
2013-05-17 01:54:00,41.0,37.4,29.72,ENE,67,3.0,3.0,87,0.00,,,0.00,meteohub,2013-05-17 00:54:00,
2013-05-17 01:59:00,41.0,37.4,29.72,NNE,22,4.0,4.0,87,0.00,,,0.00,meteohub,2013-05-17 00:59:00,
2013-05-17 02:05:00,41.0,37.4,29.72,NNE,22,2.0,4.0,87,0.00,,,0.00,meteohub,2013-05-17 01:05:00,
2013-05-17 02:10:00,41.0,37.4,29.72,NE,45,2.0,4.0,87,0.00,,,0.00,meteohub,2013-05-17 01:10:00,
2013-05-17 02:15:00,41.0,37.4,29.72,WNW,292,2.0,4.0,87,0.00,,,0.00,meteohub,2013-05-17 01:15:00,
2013-05-17 02:20:00,41.0,37.4,29.72,WNW,292,2.0,3.0,87,0.00,,,0.00,meteohub,2013-05-17 01:20:00,
2013-05-17 02:25:00,40.8,37.6,29.72,WNW,292,0.0,3.0,88,0.00,,,0.00,meteohub,2013-05-17 01:25:00,
2013-05-17 02:30:00,40.8,37.6,29.72,NW,315,0.0,3.0,88,0.00,,,0.00,meteohub,2013-05-17 01:30:00,
2013-05-17 02:35:00,40.6,37.4,29.72,SSE,157,0.0,1.0,88,0.00,,,0.00,meteohub,2013-05-17 01:35:00,
2013-05-17 02:40:00,40.6,37.4,29.72,East,90,2.0,3.0,88,0.00,,,0.00,meteohub,2013-05-17 01:40:00,
2013-05-17 02:45:00,40.8,37.6,29.72,East,90,3.0,4.0,88,0.00,,,0.00,meteohub,2013-05-17 01:45:00,
2013-05-17 02:50:00,41.0,37.9,29.72,ENE,67,4.0,6.0,89,0.00,,,0.00,meteohub,2013-05-17 01:50:00,
2013-05-17 02:55:00,41.0,37.9,29.72,NE,45,3.0,7.0,89,0.00,,,0.00,meteohub,2013-05-17 01:55:00,
2013-05-17 03:01:00,41.2,38.1,29.72,NE,45,4.0,7.0,89,0.00,,,0.00,meteohub,2013-05-17 02:01:00,
2013-05-17 03:06:00,41.2,38.1,29.72,North,0,3.0,7.0,89,0.00,,,0.00,meteohub,2013-05-17 02:06:00,
2013-05-17 03:11:00,41.2,38.1,29.72,NW,315,1.0,6.0,89,0.00,,,0.00,meteohub,2013-05-17 02:11:00,
2013-05-17 03:16:00,41.2,38.1,29.72,WNW,292,2.0,5.0,89,0.00,,,0.00,meteohub,2013-05-17 02:16:00,
2013-05-17 03:21:00,41.2,38.1,29.72,WNW,292,2.0,4.0,89,0.00,,,0.00,meteohub,2013-05-17 02:21:00,
2013-05-17 03:26:00,41.2,38.1,29.72,NW,315,1.0,3.0,89,0.00,,,0.00,meteohub,2013-05-17 02:26:00,
2013-05-17 03:31:00,41.2,38.1,29.72,NW,315,3.0,3.0,89,0.00,,,0.00,meteohub,2013-05-17 02:31:00,
2013-05-17 03:36:00,41.0,37.9,29.72,NW,315,0.0,3.0,89,0.00,,,0.00,meteohub,2013-05-17 02:36:00,
2013-05-17 03:41:00,41.0,37.9,29.72,NW,315,0.0,3.0,89,0.00,,,0.00,meteohub,2013-05-17 02:41:00,
2013-05-17 03:46:00,41.0,37.9,29.72,NNE,22,3.0,3.0,89,0.00,,,0.00,meteohub,2013-05-17 02:46:00,
2013-05-17 03:52:00,41.2,38.1,29.75,NE,45,2.0,3.0,89,0.00,,,0.00,meteohub,2013-05-17 02:52:00,
2013-05-17 03:57:00,41.2,38.5,29.75,NNE,22,2.0,3.0,90,0.00,,,0.00,meteohub,2013-05-17 02:57:00,
2013-05-17 04:02:00,41.2,38.5,29.75,NE,45,0.0,4.0,90,0.00,,,0.00,meteohub,2013-05-17 03:02:00,
2013-05-17 04:07:00,41.2,38.5,29.75,NNE,22,2.0,4.0,90,0.00,,,0.00,meteohub,2013-05-17 03:07:00,
2013-05-17 04:12:00,41.2,38.1,29.75,North,0,4.0,4.0,89,0.00,,,0.00,meteohub,2013-05-17 03:12:00,
2013-05-17 04:17:00,41.2,38.5,29.75,North,0,3.0,4.0,90,0.00,,,0.00,meteohub,2013-05-17 03:17:00,
2013-05-17 04:22:00,41.2,38.5,29.75,North,0,1.0,4.0,90,0.00,,,0.00,meteohub,2013-05-17 03:22:00,
2013-05-17 04:27:00,41.2,38.5,29.75,NNW,337,2.0,4.0,90,0.00,,,0.00,meteohub,2013-05-17 03:27:00,
2013-05-17 04:32:00,41.2,38.5,29.75,NW,315,0.0,4.0,90,0.00,,,0.00,meteohub,2013-05-17 03:32:00,
2013-05-17 04:37:00,41.0,38.3,29.75,WNW,292,0.0,4.0,90,0.00,,,0.00,meteohub,2013-05-17 03:37:00,
2013-05-17 04:42:00,41.0,38.3,29.75,SSW,202,2.0,2.0,90,0.00,,,0.00,meteohub,2013-05-17 03:42:00,
2013-05-17 04:47:00,41.0,38.3,29.75,SSW,202,0.0,2.0,90,0.00,,,0.00,meteohub,2013-05-17 03:47:00,
2013-05-17 04:52:00,41.0,38.3,29.75,SW,225,0.0,2.0,90,0.00,,,0.00,meteohub,2013-05-17 03:52:00,
2013-05-17 04:57:00,41.0,38.3,29.75,WSW,247,0.0,2.0,90,0.00,,,0.00,meteohub,2013-05-17 03:57:00,
2013-05-17 05:01:00,41.0,38.3,29.75,WSW,247,0.0,0.0,90,0.00,,,0.00,meteohub,2013-05-17 04:01:00,
2013-05-17 05:02:00,41.0,38.3,29.75,WSW,247,0.0,0.0,90,0.00,,,0.00,meteohub,2013-05-17 04:02:00,
2013-05-17 05:04:00,41.0,38.3,29.75,WSW,247,0.0,0.0,90,0.00,,,0.00,meteohub,2013-05-17 04:04:00,
2013-05-17 05:09:00,41.0,38.3,29.75,West,270,0.0,0.0,90,0.00,,,0.00,meteohub,2013-05-17 04:09:00,
2013-05-17 05:14:00,41.0,38.3,29.75,SSW,202,2.0,0.0,90,0.00,,,0.00,meteohub,2013-05-17 04:14:00,
2013-05-17 05:19:00,41.0,38.3,29.75,SSW,202,3.0,3.0,90,0.00,,,0.00,meteohub,2013-05-17 04:19:00,
2013-05-17 05:24:00,41.0,38.3,29.75,WNW,292,1.0,3.0,90,0.00,,,0.00,meteohub,2013-05-17 04:24:00,
2013-05-17 05:29:00,41.0,38.7,29.75,West,270,0.0,3.0,91,0.00,,,0.00,meteohub,2013-05-17 04:29:00,
2013-05-17 05:34:00,41.0,38.7,29.75,West,270,0.0,3.0,91,0.00,,,0.00,meteohub,2013-05-17 04:34:00,
2013-05-17 05:39:00,41.2,38.8,29.75,West,270,0.0,3.0,91,0.00,,,0.00,meteohub,2013-05-17 04:39:00,
2013-05-17 05:44:00,41.2,38.8,29.75,WNW,292,0.0,3.0,91,0.00,,,0.00,meteohub,2013-05-17 04:44:00,
2013-05-17 05:50:00,41.4,39.0,29.75,WNW,292,0.0,0.0,91,0.00,,,0.00,meteohub,2013-05-17 04:50:00,
2013-05-17 05:55:00,41.5,39.2,29.75,WNW,292,0.0,0.0,91,0.00,,,0.00,meteohub,2013-05-17 04:55:00,
2013-05-17 06:00:00,41.7,39.0,29.75,WNW,292,0.0,0.0,90,0.00,,,0.00,meteohub,2013-05-17 05:00:00,
2013-05-17 06:05:00,41.7,39.0,29.75,WNW,292,0.0,0.0,90,0.00,,,0.00,meteohub,2013-05-17 05:05:00,
2013-05-17 06:10:00,41.9,39.2,29.75,North,0,2.0,2.0,90,0.00,,,0.00,meteohub,2013-05-17 05:10:00,
2013-05-17 06:15:00,42.1,39.4,29.75,North,0,3.0,4.0,90,0.00,,,0.00,meteohub,2013-05-17 05:15:00,
2013-05-17 06:20:00,42.4,39.4,29.78,NNE,22,3.0,4.0,89,0.00,,,0.00,meteohub,2013-05-17 05:20:00,
2013-05-17 06:25:00,42.6,39.4,29.78,NNE,22,3.0,4.0,88,0.00,,,0.00,meteohub,2013-05-17 05:25:00,
2013-05-17 06:30:00,42.8,39.2,29.78,North,0,2.0,5.0,87,0.00,,,0.00,meteohub,2013-05-17 05:30:00,
2013-05-17 06:35:00,43.2,39.6,29.78,North,0,0.0,5.0,87,0.00,,,0.00,meteohub,2013-05-17 05:35:00,
2013-05-17 06:40:00,43.5,39.6,29.78,North,0,0.0,5.0,86,0.00,,,0.00,meteohub,2013-05-17 05:40:00,
2013-05-17 06:45:00,43.9,39.9,29.78,NW,315,0.0,3.0,86,0.00,,,0.00,meteohub,2013-05-17 05:45:00,
2013-05-17 06:51:00,44.2,40.3,29.78,NW,315,0.0,0.0,86,0.00,,,0.00,meteohub,2013-05-17 05:51:00,
2013-05-17 06:56:00,44.8,40.5,29.78,NW,315,0.0,0.0,85,0.00,,,0.00,meteohub,2013-05-17 05:56:00,
2013-05-17 07:01:00,45.1,40.6,29.78,NNW,337,0.0,2.0,84,0.00,,,0.00,meteohub,2013-05-17 06:01:00,
2013-05-17 07:06:00,45.3,40.5,29.78,North,0,0.0,2.0,83,0.00,,,0.00,meteohub,2013-05-17 06:06:00,
2013-05-17 07:11:00,45.5,40.3,29.78,North,0,2.0,2.0,82,0.00,,,0.00,meteohub,2013-05-17 06:11:00,
2013-05-17 07:16:00,45.7,40.1,29.78,North,0,0.0,4.0,81,0.00,,,0.00,meteohub,2013-05-17 06:16:00,
2013-05-17 07:21:00,46.0,40.3,29.78,East,90,0.0,4.0,80,0.00,,,0.00,meteohub,2013-05-17 06:21:00,
2013-05-17 07:26:00,46.2,40.1,29.78,North,0,0.0,4.0,79,0.00,,,0.00,meteohub,2013-05-17 06:26:00,
2013-05-17 07:31:00,46.4,39.9,29.78,North,0,1.0,2.0,78,0.00,,,0.00,meteohub,2013-05-17 06:31:00,
2013-05-17 07:36:00,46.8,39.6,29.78,NE,45,0.0,2.0,76,0.00,,,0.00,meteohub,2013-05-17 06:36:00,
2013-05-17 07:41:00,46.9,39.7,29.78,East,90,0.0,2.0,76,0.00,,,0.00,meteohub,2013-05-17 06:41:00,
2013-05-17 07:47:00,47.1,39.2,29.78,ESE,112,0.0,2.0,74,0.00,,,0.00,meteohub,2013-05-17 06:47:00,
2013-05-17 07:52:00,47.1,39.2,29.81,NNE,22,1.0,3.0,74,0.00,,,0.00,meteohub,2013-05-17 06:52:00,
2013-05-17 07:57:00,47.3,39.4,29.81,NNE,22,0.0,3.0,74,0.00,,,0.00,meteohub,2013-05-17 06:57:00,
2013-05-17 08:02:00,47.3,39.0,29.81,ESE,112,0.0,3.0,73,0.00,,,0.00,meteohub,2013-05-17 07:02:00,
2013-05-17 08:07:00,47.3,38.7,29.81,SE,135,0.0,3.0,72,0.00,,,0.00,meteohub,2013-05-17 07:07:00,
2013-05-17 08:12:00,47.3,38.3,29.81,ESE,112,2.0,3.0,71,0.00,,,0.00,meteohub,2013-05-17 07:12:00,
2013-05-17 08:17:00,47.3,37.9,29.81,SSE,157,0.0,3.0,70,0.00,,,0.00,meteohub,2013-05-17 07:17:00,
2013-05-17 08:22:00,47.3,37.9,29.81,East,90,2.0,4.0,70,0.00,,,0.00,meteohub,2013-05-17 07:22:00,
2013-05-17 08:27:00,47.5,37.8,29.81,East,90,3.0,4.0,69,0.00,,,0.00,meteohub,2013-05-17 07:27:00,
2013-05-17 08:32:00,47.5,37.8,29.81,ESE,112,0.0,5.0,69,0.00,,,0.00,meteohub,2013-05-17 07:32:00,
2013-05-17 08:37:00,47.5,37.8,29.81,North,0,2.0,5.0,69,0.00,,,0.00,meteohub,2013-05-17 07:37:00,
2013-05-17 08:42:00,47.7,37.6,29.81,NNE,22,1.0,5.0,68,0.00,,,0.00,meteohub,2013-05-17 07:42:00,
2013-05-17 08:47:00,47.8,38.1,29.81,North,0,0.0,5.0,69,0.00,,,0.00,meteohub,2013-05-17 07:47:00,
2013-05-17 08:52:00,49.3,39.6,29.81,NE,45,0.0,5.0,69,0.00,,,0.00,meteohub,2013-05-17 07:52:00,
2013-05-17 08:57:00,50.4,40.3,29.81,NNE,22,2.0,5.0,68,0.00,,,0.00,meteohub,2013-05-17 07:57:00,
2013-05-17 09:02:00,51.4,40.1,29.81,NE,45,6.0,6.0,65,0.00,,,0.00,meteohub,2013-05-17 08:02:00,
2013-05-17 09:07:00,52.0,38.1,29.81,NE,45,4.0,6.0,59,0.00,,,0.00,meteohub,2013-05-17 08:07:00,
2013-05-17 09:12:00,53.1,39.2,29.81,NNE,22,3.0,8.0,59,0.00,,,0.00,meteohub,2013-05-17 08:12:00,
2013-05-17 09:18:00,54.0,38.7,29.81,NE,45,7.0,8.0,56,0.00,,,0.00,meteohub,2013-05-17 08:18:00,
2013-05-17 09:23:00,54.3,37.9,29.81,ENE,67,5.0,8.0,54,0.00,,,0.00,meteohub,2013-05-17 08:23:00,
2013-05-17 09:28:00,54.5,37.8,29.81,East,90,3.0,7.0,53,0.00,,,0.00,meteohub,2013-05-17 08:28:00,
2013-05-17 09:33:00,54.7,37.4,29.81,East,90,6.0,7.0,52,0.00,,,0.00,meteohub,2013-05-17 08:33:00,
2013-05-17 09:38:00,54.9,37.6,29.81,East,90,1.0,7.0,52,0.00,,,0.00,meteohub,2013-05-17 08:38:00,
2013-05-17 09:43:00,54.9,38.1,29.81,North,0,6.0,6.0,53,0.00,,,0.00,meteohub,2013-05-17 08:43:00,
2013-05-17 09:48:00,54.5,37.2,29.81,North,0,6.0,7.0,52,0.00,,,0.00,meteohub,2013-05-17 08:48:00,
2013-05-17 09:53:00,54.5,36.7,29.81,ENE,67,5.0,8.0,51,0.00,,,0.00,meteohub,2013-05-17 08:53:00,
2013-05-17 09:58:00,54.1,36.0,29.81,NNW,337,4.0,8.0,50,0.00,,,0.00,meteohub,2013-05-17 08:58:00,
2013-05-17 10:03:00,54.0,35.8,29.81,North,0,5.0,9.0,50,0.00,,,0.00,meteohub,2013-05-17 09:03:00,
2013-05-17 10:08:00,54.3,36.1,29.81,North,0,6.0,9.0,50,0.00,,,0.00,meteohub,2013-05-17 09:08:00,
2013-05-17 10:14:00,54.3,35.6,29.81,North,0,8.0,9.0,49,0.00,,,0.00,meteohub,2013-05-17 09:14:00,
2013-05-17 10:19:00,54.3,35.6,29.81,ENE,67,5.0,10.0,49,0.00,,,0.00,meteohub,2013-05-17 09:19:00,
2013-05-17 10:24:00,54.3,35.1,29.81,North,0,11.0,11.0,48,0.00,,,0.00,meteohub,2013-05-17 09:24:00,
2013-05-17 10:29:00,54.5,35.2,29.81,NNE,22,9.0,11.0,48,0.00,,,0.00,meteohub,2013-05-17 09:29:00,
2013-05-17 10:34:00,54.3,34.5,29.81,North,0,6.0,11.0,47,0.00,,,0.00,meteohub,2013-05-17 09:34:00,
2013-05-17 10:39:00,54.5,35.2,29.81,North,0,1.0,11.0,48,0.00,,,0.00,meteohub,2013-05-17 09:39:00,
2013-05-17 10:44:00,54.7,35.4,29.81,NNW,337,8.0,11.0,48,0.00,,,0.00,meteohub,2013-05-17 09:44:00,
2013-05-17 10:49:00,54.7,34.9,29.81,East,90,10.0,10.0,47,0.00,,,0.00,meteohub,2013-05-17 09:49:00,
2013-05-17 10:54:00,54.9,35.1,29.81,NE,45,4.0,13.0,47,0.00,,,0.00,meteohub,2013-05-17 09:54:00,
2013-05-17 10:59:00,55.2,36.0,29.81,North,0,2.0,13.0,48,0.00,,,0.00,meteohub,2013-05-17 09:59:00,
2013-05-17 11:04:00,55.8,35.8,29.83,East,90,11.0,13.0,47,0.00,,,0.00,meteohub,2013-05-17 10:04:00,
2013-05-17 11:09:00,55.9,36.0,29.83,ENE,67,8.0,11.0,47,0.00,,,0.00,meteohub,2013-05-17 10:09:00,
2013-05-17 11:15:00,55.9,35.4,29.83,East,90,10.0,11.0,46,0.00,,,0.00,meteohub,2013-05-17 10:15:00,
2013-05-17 11:20:00,55.9,35.4,29.81,ENE,67,6.0,11.0,46,0.00,,,0.00,meteohub,2013-05-17 10:20:00,
2013-05-17 11:25:00,55.9,35.4,29.81,East,90,8.0,11.0,46,0.00,,,0.00,meteohub,2013-05-17 10:25:00,
2013-05-17 11:30:00,56.3,35.8,29.81,WNW,292,4.0,11.0,46,0.00,,,0.00,meteohub,2013-05-17 10:30:00,
2013-05-17 11:35:00,56.7,36.7,29.81,North,0,3.0,10.0,47,0.00,,,0.00,meteohub,2013-05-17 10:35:00,
2013-05-17 11:40:00,56.8,36.3,29.81,North,0,8.0,11.0,46,0.00,,,0.00,meteohub,2013-05-17 10:40:00,
2013-05-17 11:45:00,56.8,36.3,29.81,ENE,67,3.0,11.0,46,0.00,,,0.00,meteohub,2013-05-17 10:45:00,
2013-05-17 11:50:00,56.8,36.3,29.81,East,90,6.0,11.0,46,0.00,,,0.00,meteohub,2013-05-17 10:50:00,
2013-05-17 11:55:00,57.2,36.7,29.81,ENE,67,4.0,10.0,46,0.00,,,0.00,meteohub,2013-05-17 10:55:00,
2013-05-17 12:00:00,57.2,36.0,29.81,ENE,67,8.0,11.0,45,0.00,,,0.00,meteohub,2013-05-17 11:00:00,
2013-05-17 12:05:00,57.2,36.0,29.81,ENE,67,4.0,11.0,45,0.00,,,0.00,meteohub,2013-05-17 11:05:00,
2013-05-17 12:11:00,57.4,36.1,29.81,ENE,67,7.0,11.0,45,0.00,,,0.00,meteohub,2013-05-17 11:11:00,
2013-05-17 12:16:00,57.6,35.8,29.81,WNW,292,5.0,11.0,44,0.00,,,0.00,meteohub,2013-05-17 11:16:00,
2013-05-17 12:21:00,57.6,35.2,29.81,ENE,67,5.0,11.0,43,0.00,,,0.00,meteohub,2013-05-17 11:21:00,
2013-05-17 12:26:00,57.7,36.0,29.81,ENE,67,6.0,11.0,44,0.00,,,0.00,meteohub,2013-05-17 11:26:00,
2013-05-17 12:31:00,57.6,35.8,29.81,East,90,5.0,11.0,44,0.00,,,0.00,meteohub,2013-05-17 11:31:00,
2013-05-17 12:36:00,57.7,36.5,29.81,NW,315,4.0,10.0,45,0.00,,,0.00,meteohub,2013-05-17 11:36:00,
2013-05-17 12:41:00,57.2,35.4,29.81,NNW,337,6.0,11.0,44,0.00,,,0.00,meteohub,2013-05-17 11:41:00,
2013-05-17 12:47:00,57.6,36.3,29.81,North,0,10.0,11.0,45,0.00,,,0.00,meteohub,2013-05-17 11:47:00,
2013-05-17 12:52:00,57.2,35.4,29.81,NE,45,9.0,11.0,44,0.00,,,0.00,meteohub,2013-05-17 11:52:00,
2013-05-17 12:57:00,57.0,36.0,29.81,North,0,6.0,11.0,45,0.00,,,0.00,meteohub,2013-05-17 11:57:00,
2013-05-17 13:02:00,56.8,35.8,29.81,North,0,8.0,11.0,45,0.00,,,0.00,meteohub,2013-05-17 12:02:00,
2013-05-17 13:07:00,57.4,36.1,29.81,North,0,10.0,11.0,45,0.00,,,0.00,meteohub,2013-05-17 12:07:00,
2013-05-17 13:12:00,57.7,36.5,29.81,NNW,337,8.0,13.0,45,0.00,,,0.00,meteohub,2013-05-17 12:12:00,
2013-05-17 13:17:00,57.9,36.7,29.81,North,0,3.0,13.0,45,0.00,,,0.00,meteohub,2013-05-17 12:17:00,
2013-05-17 13:22:00,58.3,37.0,29.81,NNE,22,10.0,13.0,45,0.00,,,0.00,meteohub,2013-05-17 12:22:00,
2013-05-17 13:27:00,58.5,37.2,29.81,WNW,292,8.0,11.0,45,0.00,,,0.00,meteohub,2013-05-17 12:27:00,
2013-05-17 13:32:00,58.8,37.6,29.81,NNW,337,7.0,11.0,45,0.00,,,0.00,meteohub,2013-05-17 12:32:00,
2013-05-17 13:37:00,59.0,37.0,29.81,NW,315,6.0,11.0,44,0.00,,,0.00,meteohub,2013-05-17 12:37:00,
2013-05-17 13:42:00,59.2,37.2,29.81,NNW,337,8.0,11.0,44,0.00,,,0.00,meteohub,2013-05-17 12:42:00,
2013-05-17 13:47:00,59.4,36.9,29.81,NW,315,5.0,12.0,43,0.00,,,0.00,meteohub,2013-05-17 12:47:00,
2013-05-17 13:52:00,59.2,37.2,29.81,NNW,337,6.0,12.0,44,0.00,,,0.00,meteohub,2013-05-17 12:52:00,
2013-05-17 13:57:00,59.5,37.6,29.81,NNW,337,9.0,12.0,44,0.00,,,0.00,meteohub,2013-05-17 12:57:00,
2013-05-17 14:03:00,59.4,36.9,29.81,North,0,4.0,12.0,43,0.00,,,0.00,meteohub,2013-05-17 13:03:00,
2013-05-17 14:08:00,59.2,37.2,29.81,NNE,22,11.0,12.0,44,0.00,,,0.00,meteohub,2013-05-17 13:08:00,
2013-05-17 14:13:00,59.0,36.5,29.81,NNW,337,13.0,13.0,43,0.00,,,0.00,meteohub,2013-05-17 13:13:00,
2013-05-17 14:18:00,59.2,36.7,29.81,NNW,337,6.0,13.0,43,0.00,,,0.00,meteohub,2013-05-17 13:18:00,
2013-05-17 14:23:00,59.2,36.7,29.81,North,0,6.0,13.0,43,0.00,,,0.00,meteohub,2013-05-17 13:23:00,
2013-05-17 14:28:00,59.0,36.0,29.81,North,0,8.0,13.0,42,0.00,,,0.00,meteohub,2013-05-17 13:28:00,
2013-05-17 14:33:00,58.8,36.3,29.81,NNW,337,11.0,13.0,43,0.00,,,0.00,meteohub,2013-05-17 13:33:00,
2013-05-17 14:38:00,58.8,36.3,29.81,NNE,22,8.0,11.0,43,0.00,,,0.00,meteohub,2013-05-17 13:38:00,
2013-05-17 14:43:00,58.6,35.6,29.81,NNE,22,5.0,11.0,42,0.00,,,0.00,meteohub,2013-05-17 13:43:00,
2013-05-17 14:48:00,58.5,35.4,29.81,North,0,7.0,11.0,42,0.00,,,0.00,meteohub,2013-05-17 13:48:00,
2013-05-17 14:54:00,58.3,35.2,29.81,ENE,67,6.0,11.0,42,0.00,,,0.00,meteohub,2013-05-17 13:54:00,
2013-05-17 14:59:00,58.1,35.1,29.81,NNE,22,6.0,11.0,42,0.00,,,0.00,meteohub,2013-05-17 13:59:00,
2013-05-17 15:04:00,57.9,34.9,29.81,North,0,6.0,11.0,42,0.00,,,0.00,meteohub,2013-05-17 14:04:00,
2013-05-17 15:09:00,57.9,34.9,29.81,NNE,22,10.0,13.0,42,0.00,,,0.00,meteohub,2013-05-17 14:09:00,
2013-05-17 15:14:00,57.7,34.9,29.81,NE,45,7.0,13.0,42,0.00,,,0.00,meteohub,2013-05-17 14:14:00,
2013-05-17 15:19:00,57.7,34.9,29.81,East,90,4.0,13.0,42,0.00,,,0.00,meteohub,2013-05-17 14:19:00,
2013-05-17 15:24:00,57.9,34.9,29.81,NNE,22,3.0,12.0,42,0.00,,,0.00,meteohub,2013-05-17 14:24:00,
2013-05-17 15:29:00,58.1,35.8,29.81,NNE,22,9.0,12.0,43,0.00,,,0.00,meteohub,2013-05-17 14:29:00,
2013-05-17 15:34:00,58.3,35.2,29.81,North,0,7.0,12.0,42,0.00,,,0.00,meteohub,2013-05-17 14:34:00,
2013-05-17 15:40:00,58.1,35.8,29.81,North,0,6.0,10.0,43,0.00,,,0.00,meteohub,2013-05-17 14:40:00,
2013-05-17 15:45:00,58.3,35.2,29.81,North,0,4.0,10.0,42,0.00,,,0.00,meteohub,2013-05-17 14:45:00,
2013-05-17 15:50:00,58.6,36.1,29.81,NNE,22,2.0,10.0,43,0.00,,,0.00,meteohub,2013-05-17 14:50:00,
2013-05-17 15:55:00,59.2,36.7,29.81,NNW,337,2.0,6.0,43,0.00,,,0.00,meteohub,2013-05-17 14:55:00,
2013-05-17 16:00:00,59.7,36.5,29.81,NNE,22,10.0,10.0,42,0.00,,,0.00,meteohub,2013-05-17 15:00:00,
2013-05-17 16:05:00,59.5,36.5,29.81,East,90,10.0,14.0,42,0.00,,,0.00,meteohub,2013-05-17 15:05:00,
2013-05-17 16:10:00,59.4,36.3,29.81,East,90,6.0,14.0,42,0.00,,,0.00,meteohub,2013-05-17 15:10:00,
2013-05-17 16:15:00,59.4,35.6,29.81,ESE,112,1.0,14.0,41,0.00,,,0.00,meteohub,2013-05-17 15:15:00,
2013-05-17 16:20:00,59.4,36.9,29.81,South,180,3.0,13.0,43,0.00,,,0.00,meteohub,2013-05-17 15:20:00,
2013-05-17 16:25:00,59.7,37.8,29.81,ESE,112,13.0,13.0,44,0.00,,,0.00,meteohub,2013-05-17 15:25:00,
2013-05-17 16:31:00,59.5,37.6,29.81,SE,135,9.0,13.0,44,0.00,,,0.00,meteohub,2013-05-17 15:31:00,
2013-05-17 16:36:00,59.4,36.9,29.81,ESE,112,7.0,13.0,43,0.00,,,0.00,meteohub,2013-05-17 15:36:00,
2013-05-17 16:41:00,59.2,37.2,29.81,SSE,157,5.0,13.0,44,0.00,,,0.00,meteohub,2013-05-17 15:41:00,
2013-05-17 16:46:00,58.8,37.0,29.81,SE,135,6.0,9.0,44,0.00,,,0.00,meteohub,2013-05-17 15:46:00,
2013-05-17 16:51:00,58.5,37.2,29.81,SSE,157,7.0,11.0,45,0.00,,,0.00,meteohub,2013-05-17 15:51:00,
2013-05-17 16:56:00,58.3,37.0,29.81,SE,135,7.0,11.0,45,0.00,,,0.00,meteohub,2013-05-17 15:56:00,
2013-05-17 17:01:00,58.5,37.2,29.81,ESE,112,3.0,11.0,45,0.00,,,0.00,meteohub,2013-05-17 16:01:00,
2013-05-17 17:06:00,58.5,37.2,29.81,SSE,157,10.0,10.0,45,0.00,,,0.00,meteohub,2013-05-17 16:06:00,
2013-05-17 17:12:00,58.3,37.0,29.81,SE,135,7.0,10.0,45,0.00,,,0.00,meteohub,2013-05-17 16:12:00,
2013-05-17 17:17:00,58.1,37.4,29.81,SSE,157,7.0,11.0,46,0.00,,,0.00,meteohub,2013-05-17 16:17:00,
2013-05-17 17:22:00,57.9,36.7,29.81,ESE,112,11.0,13.0,45,0.00,,,0.00,meteohub,2013-05-17 16:22:00,
2013-05-17 17:27:00,57.7,36.5,29.81,SE,135,8.0,14.0,45,0.00,,,0.00,meteohub,2013-05-17 16:27:00,
2013-05-17 17:32:00,57.7,37.0,29.81,ESE,112,8.0,14.0,46,0.00,,,0.00,meteohub,2013-05-17 16:32:00,
2013-05-17 17:37:00,57.0,36.5,29.81,East,90,8.0,15.0,46,0.00,,,0.00,meteohub,2013-05-17 16:37:00,
2013-05-17 17:42:00,56.7,36.1,29.81,East,90,8.0,15.0,46,0.00,,,0.00,meteohub,2013-05-17 16:42:00,
2013-05-17 17:47:00,56.3,35.8,29.81,ESE,112,7.0,15.0,46,0.00,,,0.00,meteohub,2013-05-17 16:47:00,
2013-05-17 17:52:00,56.1,35.6,29.81,SE,135,11.0,15.0,46,0.00,,,0.00,meteohub,2013-05-17 16:52:00,
2013-05-17 17:57:00,55.9,36.0,29.81,ESE,112,13.0,15.0,47,0.00,,,0.00,meteohub,2013-05-17 16:57:00,
2013-05-17 18:02:00,55.8,35.8,29.81,East,90,8.0,13.0,47,0.00,,,0.00,meteohub,2013-05-17 17:02:00,
2013-05-17 18:07:00,55.8,35.8,29.83,East,90,5.0,13.0,47,0.00,,,0.00,meteohub,2013-05-17 17:07:00,
2013-05-17 18:12:00,55.6,35.6,29.83,SSE,157,6.0,13.0,47,0.00,,,0.00,meteohub,2013-05-17 17:12:00,
2013-05-17 18:17:00,55.4,36.0,29.83,SE,135,6.0,11.0,48,0.00,,,0.00,meteohub,2013-05-17 17:17:00,
2013-05-17 18:22:00,55.2,36.3,29.83,East,90,6.0,11.0,49,0.00,,,0.00,meteohub,2013-05-17 17:22:00,
2013-05-17 18:27:00,54.9,36.1,29.83,SSE,157,3.0,10.0,49,0.00,,,0.00,meteohub,2013-05-17 17:27:00,
2013-05-17 18:32:00,54.7,36.0,29.83,SE,135,4.0,9.0,49,0.00,,,0.00,meteohub,2013-05-17 17:32:00,
2013-05-17 18:37:00,54.7,36.3,29.83,ESE,112,5.0,9.0,50,0.00,,,0.00,meteohub,2013-05-17 17:37:00,
2013-05-17 18:42:00,54.7,36.9,29.83,SE,135,6.0,9.0,51,0.00,,,0.00,meteohub,2013-05-17 17:42:00,
2013-05-17 18:47:00,54.9,37.0,29.83,East,90,3.0,8.0,51,0.00,,,0.00,meteohub,2013-05-17 17:47:00,
2013-05-17 18:52:00,54.9,37.0,29.83,SSE,157,5.0,8.0,51,0.00,,,0.00,meteohub,2013-05-17 17:52:00,
2013-05-17 18:58:00,55.0,37.2,29.83,SSE,157,3.0,8.0,51,0.00,,,0.00,meteohub,2013-05-17 17:58:00,
2013-05-17 19:03:00,54.9,37.0,29.83,ENE,67,3.0,6.0,51,0.00,,,0.00,meteohub,2013-05-17 18:03:00,
2013-05-17 19:08:00,54.9,37.0,29.83,SSE,157,2.0,6.0,51,0.00,,,0.00,meteohub,2013-05-17 18:08:00,
2013-05-17 19:13:00,54.9,37.0,29.83,ESE,112,0.0,5.0,51,0.00,,,0.00,meteohub,2013-05-17 18:13:00,
2013-05-17 19:18:00,54.9,37.6,29.83,SW,225,3.0,5.0,52,0.00,,,0.00,meteohub,2013-05-17 18:18:00,
2013-05-17 19:23:00,54.9,37.6,29.83,SE,135,2.0,5.0,52,0.00,,,0.00,meteohub,2013-05-17 18:23:00,
2013-05-17 19:28:00,54.9,37.0,29.83,SSE,157,3.0,5.0,51,0.00,,,0.00,meteohub,2013-05-17 18:28:00,
2013-05-17 19:33:00,54.9,37.6,29.83,SE,135,4.0,4.0,52,0.00,,,0.00,meteohub,2013-05-17 18:33:00,
2013-05-17 19:38:00,55.0,37.8,29.83,South,180,0.0,4.0,52,0.00,,,0.00,meteohub,2013-05-17 18:38:00,
2013-05-17 19:43:00,54.9,37.6,29.83,SW,225,3.0,4.0,52,0.00,,,0.00,meteohub,2013-05-17 18:43:00,
2013-05-17 19:48:00,54.9,37.6,29.83,SSW,202,4.0,4.0,52,0.00,,,0.00,meteohub,2013-05-17 18:48:00,
2013-05-17 19:54:00,54.5,37.2,29.83,SSW,202,2.0,4.0,52,0.00,,,0.00,meteohub,2013-05-17 18:54:00,
2013-05-17 19:59:00,54.3,37.6,29.83,SSW,202,2.0,4.0,53,0.00,,,0.00,meteohub,2013-05-17 18:59:00,
2013-05-17 20:04:00,54.1,37.4,29.83,SSW,202,0.0,4.0,53,0.00,,,0.00,meteohub,2013-05-17 19:04:00,
2013-05-17 20:09:00,54.1,36.9,29.83,SSW,202,0.0,4.0,52,0.00,,,0.00,meteohub,2013-05-17 19:09:00,
2013-05-17 20:14:00,54.1,37.4,29.83,West,270,0.0,4.0,53,0.00,,,0.00,meteohub,2013-05-17 19:14:00,
2013-05-17 20:19:00,54.0,37.2,29.83,NNW,337,3.0,3.0,53,0.00,,,0.00,meteohub,2013-05-17 19:19:00,
2013-05-17 20:24:00,54.0,37.2,29.83,North,0,6.0,6.0,53,0.00,,,0.00,meteohub,2013-05-17 19:24:00,
2013-05-17 20:29:00,54.0,36.7,29.83,NNE,22,6.0,6.0,52,0.00,,,0.00,meteohub,2013-05-17 19:29:00,
2013-05-17 20:34:00,54.1,36.9,29.83,NNE,22,6.0,9.0,52,0.00,,,0.00,meteohub,2013-05-17 19:34:00,
2013-05-17 20:39:00,54.1,36.9,29.83,North,0,4.0,9.0,52,0.00,,,0.00,meteohub,2013-05-17 19:39:00,
2013-05-17 20:44:00,54.0,36.7,29.83,NNW,337,6.0,10.0,52,0.00,,,0.00,meteohub,2013-05-17 19:44:00,
2013-05-17 20:50:00,54.0,36.7,29.83,North,0,12.0,12.0,52,0.00,,,0.00,meteohub,2013-05-17 19:50:00,
2013-05-17 20:55:00,53.8,36.5,29.83,North,0,7.0,12.0,52,0.00,,,0.00,meteohub,2013-05-17 19:55:00,
2013-05-17 21:00:00,53.6,36.9,29.83,NNE,22,8.0,13.0,53,0.00,,,0.00,meteohub,2013-05-17 20:00:00,
2013-05-17 21:05:00,53.4,36.7,29.83,North,0,11.0,13.0,53,0.00,,,0.00,meteohub,2013-05-17 20:05:00,
2013-05-17 21:10:00,53.2,37.0,29.83,North,0,9.0,13.0,54,0.00,,,0.00,meteohub,2013-05-17 20:10:00,
2013-05-17 21:15:00,53.1,36.9,29.83,North,0,15.0,15.0,54,0.00,,,0.00,meteohub,2013-05-17 20:15:00,
2013-05-17 21:20:00,53.1,36.9,29.83,North,0,10.0,15.0,54,0.00,,,0.00,meteohub,2013-05-17 20:20:00,
2013-05-17 21:25:00,52.9,37.2,29.83,NNE,22,8.0,15.0,55,0.00,,,0.00,meteohub,2013-05-17 20:25:00,
2013-05-17 21:30:00,52.7,37.0,29.83,ENE,67,10.0,15.0,55,0.00,,,0.00,meteohub,2013-05-17 20:30:00,
2013-05-17 21:35:00,52.5,37.2,29.83,NNE,22,10.0,15.0,56,0.00,,,0.00,meteohub,2013-05-17 20:35:00,
2013-05-17 21:41:00,52.3,37.6,29.83,North,0,9.0,15.0,57,0.00,,,0.00,meteohub,2013-05-17 20:41:00,
2013-05-17 21:46:00,52.2,37.4,29.83,NNW,337,5.0,15.0,57,0.00,,,0.00,meteohub,2013-05-17 20:46:00,
2013-05-17 21:51:00,52.0,37.6,29.83,North,0,8.0,13.0,58,0.00,,,0.00,meteohub,2013-05-17 20:51:00,
2013-05-17 21:56:00,52.0,38.1,29.83,North,0,10.0,13.0,59,0.00,,,0.00,meteohub,2013-05-17 20:56:00,
2013-05-17 22:01:00,51.8,37.9,29.83,NNW,337,11.0,13.0,59,0.00,,,0.00,meteohub,2013-05-17 21:01:00,
2013-05-17 22:06:00,51.6,38.7,29.83,North,0,6.0,14.0,61,0.00,,,0.00,meteohub,2013-05-17 21:06:00,
2013-05-17 22:11:00,51.6,38.7,29.83,NNW,337,6.0,14.0,61,0.00,,,0.00,meteohub,2013-05-17 21:11:00,
2013-05-17 22:16:00,51.6,38.7,29.83,North,0,5.0,14.0,61,0.00,,,0.00,meteohub,2013-05-17 21:16:00,
2013-05-17 22:21:00,51.6,39.0,29.83,NW,315,5.0,13.0,62,0.00,,,0.00,meteohub,2013-05-17 21:21:00,
2013-05-17 22:26:00,51.4,38.8,29.83,NNW,337,5.0,13.0,62,0.00,,,0.00,meteohub,2013-05-17 21:26:00,
2013-05-17 22:31:00,51.4,38.8,29.83,North,0,9.0,12.0,62,0.00,,,0.00,meteohub,2013-05-17 21:31:00,
2013-05-17 22:37:00,51.4,39.2,29.86,NNW,337,5.0,11.0,63,0.00,,,0.00,meteohub,2013-05-17 21:37:00,
2013-05-17 22:42:00,51.4,39.2,29.86,North,0,8.0,11.0,63,0.00,,,0.00,meteohub,2013-05-17 21:42:00,
2013-05-17 22:47:00,51.3,39.0,29.86,NNW,337,8.0,11.0,63,0.00,,,0.00,meteohub,2013-05-17 21:47:00,
2013-05-17 22:52:00,51.3,39.0,29.83,NNW,337,9.0,12.0,63,0.00,,,0.00,meteohub,2013-05-17 21:52:00,
2013-05-17 22:57:00,51.3,39.0,29.83,North,0,5.0,12.0,63,0.00,,,0.00,meteohub,2013-05-17 21:57:00,
2013-05-17 23:02:00,51.3,39.0,29.83,North,0,5.0,12.0,63,0.00,,,0.00,meteohub,2013-05-17 22:02:00,
2013-05-17 23:07:00,51.1,39.4,29.83,NNW,337,5.0,9.0,64,0.00,,,0.00,meteohub,2013-05-17 22:07:00,
2013-05-17 23:12:00,51.1,39.4,29.83,North,0,6.0,12.0,64,0.00,,,0.00,meteohub,2013-05-17 22:12:00,
2013-05-17 23:17:00,50.9,39.2,29.83,North,0,10.0,12.0,64,0.00,,,0.00,meteohub,2013-05-17 22:17:00,
2013-05-17 23:22:00,50.9,39.2,29.83,NNW,337,6.0,12.0,64,0.00,,,0.00,meteohub,2013-05-17 22:22:00,
2013-05-17 23:27:00,50.7,39.4,29.83,North,0,7.0,11.0,65,0.00,,,0.00,meteohub,2013-05-17 22:27:00,
2013-05-17 23:33:00,50.7,39.4,29.83,North,0,10.0,14.0,65,0.00,,,0.00,meteohub,2013-05-17 22:33:00,
2013-05-17 23:38:00,50.7,39.4,29.83,NNW,337,6.0,14.0,65,0.00,,,0.00,meteohub,2013-05-17 22:38:00,
2013-05-17 23:43:00,50.7,39.7,29.83,NNW,337,6.0,14.0,66,0.00,,,0.00,meteohub,2013-05-17 22:43:00,
2013-05-17 23:48:00,50.5,39.6,29.83,NNW,337,9.0,11.0,66,0.00,,,0.00,meteohub,2013-05-17 22:48:00,
2013-05-17 23:53:00,50.5,39.6,29.83,North,0,10.0,13.0,66,0.00,,,0.00,meteohub,2013-05-17 22:53:00,
2013-05-17 23:58:00,50.5,39.9,29.83,WNW,292,8.0,13.0,67,0.00,,,0.00,meteohub,2013-05-17 22:58:00,